sensor_id;sensor_type;location;lat;lon;timestamp;pressure;altitude;pressure_sealevel;temperature;humidity
7524;BME280;3803;51.666;7.630;2024-03-07T00:00:14;101936.59;;;6.12;62.61
7524;BME280;3803;51.666;7.630;2024-03-07T00:00:36;101940.00;;;6.11;62.20
7524;BME280;3803;51.666;7.630;2024-03-07T00:00:56;101920.88;;;6.09;62.82
7524;BME280;3803;51.666;7.630;2024-03-07T00:01:17;101932.41;;;6.14;62.48
7524;BME280;3803;51.666;7.630;2024-03-07T00:01:39;101945.47;;;6.16;62.99
7524;BME280;3803;51.666;7.630;2024-03-07T00:01:59;101928.53;;;6.08;62.73
7524;BME280;3803;51.666;7.630;2024-03-07T00:02:20;101938.59;;;6.16;63.01
7524;BME280;3803;51.666;7.630;2024-03-07T00:02:42;101939.50;;;6.17;62.95
7524;BME280;3803;51.666;7.630;2024-03-07T00:03:03;101929.31;;;6.20;63.00
7524;BME280;3803;51.666;7.630;2024-03-07T00:03:24;101916.66;;;6.11;62.54
7524;BME280;3803;51.666;7.630;2024-03-07T00:03:44;101930.09;;;6.19;62.53
7524;BME280;3803;51.666;7.630;2024-03-07T00:04:05;101944.47;;;6.27;62.47
7524;BME280;3803;51.666;7.630;2024-03-07T00:04:26;101932.13;;;6.23;62.46
7524;BME280;3803;51.666;7.630;2024-03-07T00:04:47;101931.03;;;6.20;62.45
7524;BME280;3803;51.666;7.630;2024-03-07T00:05:07;101925.72;;;6.18;62.58
7524;BME280;3803;51.666;7.630;2024-03-07T00:05:28;101934.72;;;6.23;62.28
7524;BME280;3803;51.666;7.630;2024-03-07T00:05:50;101932.31;;;6.26;62.38
7524;BME280;3803;51.666;7.630;2024-03-07T00:06:11;101923.25;;;6.20;62.64
7524;BME280;3803;51.666;7.630;2024-03-07T00:06:31;101932.00;;;6.22;62.33
7524;BME280;3803;51.666;7.630;2024-03-07T00:06:55;101924.75;;;6.16;62.90
7524;BME280;3803;51.666;7.630;2024-03-07T00:07:19;101942.50;;;6.23;62.45
7524;BME280;3803;51.666;7.630;2024-03-07T00:07:43;101932.69;;;6.19;62.76
7524;BME280;3803;51.666;7.630;2024-03-07T00:08:07;101923.94;;;6.17;62.62
7524;BME280;3803;51.666;7.630;2024-03-07T00:08:28;101926.53;;;6.17;62.69
7524;BME280;3803;51.666;7.630;2024-03-07T00:09:00;101944.47;;;6.27;62.10
7524;BME280;3803;51.666;7.630;2024-03-07T00:09:21;101931.13;;;6.21;62.39
7524;BME280;3803;51.666;7.630;2024-03-07T00:09:44;101921.34;;;6.17;62.91
7524;BME280;3803;51.666;7.630;2024-03-07T00:10:07;101923.03;;;6.16;62.53
7524;BME280;3803;51.666;7.630;2024-03-07T00:10:28;101937.38;;;6.25;62.33
7524;BME280;3803;51.666;7.630;2024-03-07T00:10:48;101931.13;;;6.21;62.37
7524;BME280;3803;51.666;7.630;2024-03-07T00:11:09;101935.41;;;6.21;62.54
7524;BME280;3803;51.666;7.630;2024-03-07T00:11:30;101936.00;;;6.16;62.51
7524;BME280;3803;51.666;7.630;2024-03-07T00:11:51;101924.63;;;6.14;62.24
7524;BME280;3803;51.666;7.630;2024-03-07T00:12:14;101945.78;;;6.21;62.56
7524;BME280;3803;51.666;7.630;2024-03-07T00:12:36;101930.63;;;6.13;62.27
7524;BME280;3803;51.666;7.630;2024-03-07T00:13:03;101936.00;;;6.16;62.19
7524;BME280;3803;51.666;7.630;2024-03-07T00:13:24;101926.25;;;6.12;62.65
7524;BME280;3803;51.666;7.630;2024-03-07T00:13:45;101935.00;;;6.14;62.44
7524;BME280;3803;51.666;7.630;2024-03-07T00:14:06;101919.97;;;6.09;62.39
7524;BME280;3803;51.666;7.630;2024-03-07T00:14:27;101935.91;;;6.15;62.54
7524;BME280;3803;51.666;7.630;2024-03-07T00:14:48;101935.91;;;6.15;63.05
7524;BME280;3803;51.666;7.630;2024-03-07T00:15:10;101934.31;;;6.17;62.24
7524;BME280;3803;51.666;7.630;2024-03-07T00:15:31;101931.59;;;6.15;62.55
7524;BME280;3803;51.666;7.630;2024-03-07T00:15:52;101930.72;;;6.15;62.56
7524;BME280;3803;51.666;7.630;2024-03-07T00:16:13;101944.88;;;6.20;62.43
7524;BME280;3803;51.666;7.630;2024-03-07T00:16:34;101944.88;;;6.20;62.39
7524;BME280;3803;51.666;7.630;2024-03-07T00:16:58;101946.69;;;6.21;62.48
7524;BME280;3803;51.666;7.630;2024-03-07T00:17:21;101944.16;;;6.23;62.29
7524;BME280;3803;51.666;7.630;2024-03-07T00:17:43;101946.56;;;6.20;62.52
7524;BME280;3803;51.666;7.630;2024-03-07T00:18:04;101938.50;;;6.15;62.53
7524;BME280;3803;51.666;7.630;2024-03-07T00:18:26;101949.97;;;6.19;62.49
7524;BME280;3803;51.666;7.630;2024-03-07T00:18:47;101941.97;;;6.15;62.77
7524;BME280;3803;51.666;7.630;2024-03-07T00:19:07;101944.69;;;6.17;62.55
7524;BME280;3803;51.666;7.630;2024-03-07T00:19:28;101953.25;;;6.16;62.46
7524;BME280;3803;51.666;7.630;2024-03-07T00:19:50;101930.13;;;6.06;62.25
7524;BME280;3803;51.666;7.630;2024-03-07T00:20:11;101936.09;;;6.05;62.33
7524;BME280;3803;51.666;7.630;2024-03-07T00:20:34;101933.50;;;6.05;62.54
7524;BME280;3803;51.666;7.630;2024-03-07T00:20:55;101937.28;;;6.10;62.38
7524;BME280;3803;51.666;7.630;2024-03-07T00:21:16;101944.28;;;6.11;62.36
7524;BME280;3803;51.666;7.630;2024-03-07T00:21:37;101946.16;;;6.13;62.31
7524;BME280;3803;51.666;7.630;2024-03-07T00:21:59;101945.25;;;6.13;62.57
7524;BME280;3803;51.666;7.630;2024-03-07T00:22:19;101948.66;;;6.12;62.41
7524;BME280;3803;51.666;7.630;2024-03-07T00:22:41;101932.63;;;6.04;62.52
7524;BME280;3803;51.666;7.630;2024-03-07T00:23:02;101948.66;;;6.12;62.41
7524;BME280;3803;51.666;7.630;2024-03-07T00:23:23;101949.28;;;6.08;62.46
7524;BME280;3803;51.666;7.630;2024-03-07T00:23:44;101935.91;;;6.01;62.59
7524;BME280;3803;51.666;7.630;2024-03-07T00:24:05;101946.56;;;6.06;62.63
7524;BME280;3803;51.666;7.630;2024-03-07T00:24:25;101946.78;;;6.09;62.37
7524;BME280;3803;51.666;7.630;2024-03-07T00:24:48;101931.53;;;6.00;62.55
7524;BME280;3803;51.666;7.630;2024-03-07T00:25:12;101941.19;;;6.03;62.34
7524;BME280;3803;51.666;7.630;2024-03-07T00:25:42;101936.69;;;6.00;62.57
7524;BME280;3803;51.666;7.630;2024-03-07T00:26:06;101932.91;;;5.95;62.53
7524;BME280;3803;51.666;7.630;2024-03-07T00:26:28;101935.59;;;5.97;62.26
7524;BME280;3803;51.666;7.630;2024-03-07T00:26:50;101940.09;;;5.99;62.26
7524;BME280;3803;51.666;7.630;2024-03-07T00:27:11;101954.44;;;6.08;62.53
7524;BME280;3803;51.666;7.630;2024-03-07T00:27:35;101936.59;;;5.99;62.42
7524;BME280;3803;51.666;7.630;2024-03-07T00:27:59;101930.31;;;5.95;62.63
7524;BME280;3803;51.666;7.630;2024-03-07T00:28:27;101934.81;;;5.98;62.38
7524;BME280;3803;51.666;7.630;2024-03-07T00:28:55;101948.06;;;6.02;62.59
7524;BME280;3803;51.666;7.630;2024-03-07T00:29:21;101934.69;;;5.96;62.40
7524;BME280;3803;51.666;7.630;2024-03-07T00:29:42;101943.66;;;6.01;62.45
7524;BME280;3803;51.666;7.630;2024-03-07T00:30:04;101928.31;;;5.91;62.34
7524;BME280;3803;51.666;7.630;2024-03-07T00:30:25;101944.47;;;6.00;62.84
7524;BME280;3803;51.666;7.630;2024-03-07T00:30:49;101946.88;;;5.97;62.43
7524;BME280;3803;51.666;7.630;2024-03-07T00:31:24;101936.09;;;5.91;62.27
7524;BME280;3803;51.666;7.630;2024-03-07T00:31:50;101931.72;;;5.90;62.43
7524;BME280;3803;51.666;7.630;2024-03-07T00:32:21;101929.72;;;5.86;62.39
7524;BME280;3803;51.666;7.630;2024-03-07T00:32:46;101942.28;;;5.93;62.55
7524;BME280;3803;51.666;7.630;2024-03-07T00:33:20;101934.09;;;5.87;62.89
7524;BME280;3803;51.666;7.630;2024-03-07T00:33:42;101934.00;;;5.85;62.49
7524;BME280;3803;51.666;7.630;2024-03-07T00:34:10;101939.69;;;5.93;62.67
7524;BME280;3803;51.666;7.630;2024-03-07T00:34:31;101937.66;;;5.89;62.76
7524;BME280;3803;51.666;7.630;2024-03-07T00:34:54;101939.56;;;5.92;62.62
7524;BME280;3803;51.666;7.630;2024-03-07T00:35:20;101946.66;;;5.94;62.74
7524;BME280;3803;51.666;7.630;2024-03-07T00:35:41;101943.94;;;5.93;62.90
7524;BME280;3803;51.666;7.630;2024-03-07T00:36:05;101952.94;;;5.98;62.41
7524;BME280;3803;51.666;7.630;2024-03-07T00:36:27;101960.13;;;6.02;62.77
7524;BME280;3803;51.666;7.630;2024-03-07T00:36:56;101933.41;;;5.89;62.46
7524;BME280;3803;51.666;7.630;2024-03-07T00:37:22;101948.66;;;5.98;62.97
7524;BME280;3803;51.666;7.630;2024-03-07T00:37:47;101952.13;;;5.99;62.40
7524;BME280;3803;51.666;7.630;2024-03-07T00:38:17;101932.50;;;5.89;62.32
7524;BME280;3803;51.666;7.630;2024-03-07T00:38:41;101937.88;;;5.92;62.77
7524;BME280;3803;51.666;7.630;2024-03-07T00:39:05;101932.50;;;5.89;62.92
7524;BME280;3803;51.666;7.630;2024-03-07T00:39:29;101934.31;;;5.90;62.57
7524;BME280;3803;51.666;7.630;2024-03-07T00:39:50;101929.03;;;5.88;62.58
7524;BME280;3803;51.666;7.630;2024-03-07T00:40:16;101946.88;;;5.97;62.31
7524;BME280;3803;51.666;7.630;2024-03-07T00:40:37;101937.78;;;5.91;62.77
7524;BME280;3803;51.666;7.630;2024-03-07T00:40:58;101944.19;;;5.96;62.76
7524;BME280;3803;51.666;7.630;2024-03-07T00:41:19;101946.88;;;5.97;62.72
7524;BME280;3803;51.666;7.630;2024-03-07T00:41:41;101928.03;;;5.86;62.45
7524;BME280;3803;51.666;7.630;2024-03-07T00:42:02;101937.66;;;5.89;62.78
7524;BME280;3803;51.666;7.630;2024-03-07T00:42:23;101930.63;;;5.86;62.41
7524;BME280;3803;51.666;7.630;2024-03-07T00:42:44;101940.88;;;5.85;62.27
7524;BME280;3803;51.666;7.630;2024-03-07T00:43:05;101955.22;;;5.93;62.36
7524;BME280;3803;51.666;7.630;2024-03-07T00:43:27;101947.16;;;5.88;62.42
7524;BME280;3803;51.666;7.630;2024-03-07T00:43:47;101947.03;;;5.87;62.87
7524;BME280;3803;51.666;7.630;2024-03-07T00:44:08;101941.97;;;5.88;62.68
7524;BME280;3803;51.666;7.630;2024-03-07T00:44:29;101942.97;;;5.91;62.72
7524;BME280;3803;51.666;7.630;2024-03-07T00:44:56;101924.91;;;5.79;62.83
7524;BME280;3803;51.666;7.630;2024-03-07T00:45:28;101930.22;;;5.80;62.42
7524;BME280;3803;51.666;7.630;2024-03-07T00:46:02;101947.03;;;5.87;62.63
7524;BME280;3803;51.666;7.630;2024-03-07T00:46:31;101935.97;;;5.76;62.87
7524;BME280;3803;51.666;7.630;2024-03-07T00:47:01;101938.84;;;5.81;62.67
7524;BME280;3803;51.666;7.630;2024-03-07T00:47:34;101933.59;;;5.79;62.69
7524;BME280;3803;51.666;7.630;2024-03-07T00:47:55;101928.09;;;5.88;62.58
7524;BME280;3803;51.666;7.630;2024-03-07T00:48:18;101936.59;;;5.99;62.21
7524;BME280;3803;51.666;7.630;2024-03-07T00:48:45;101950.78;;;6.18;62.00
7524;BME280;3803;51.666;7.630;2024-03-07T00:49:09;101949.84;;;6.17;61.89
7524;BME280;3803;51.666;7.630;2024-03-07T00:49:30;101948.88;;;6.15;61.71
7524;BME280;3803;51.666;7.630;2024-03-07T00:49:54;101937.88;;;6.19;61.26
7524;BME280;3803;51.666;7.630;2024-03-07T00:50:21;101952.94;;;6.25;61.61
7524;BME280;3803;51.666;7.630;2024-03-07T00:50:53;101946.88;;;6.24;61.51
7524;BME280;3803;51.666;7.630;2024-03-07T00:51:22;101930.72;;;6.15;61.25
7524;BME280;3803;51.666;7.630;2024-03-07T00:51:46;101938.91;;;6.21;61.02
7524;BME280;3803;51.666;7.630;2024-03-07T00:52:16;101934.50;;;6.20;61.18
7524;BME280;3803;51.666;7.630;2024-03-07T00:52:37;101951.56;;;6.30;61.20
7524;BME280;3803;51.666;7.630;2024-03-07T00:53:01;101938.00;;;6.21;61.15
7524;BME280;3803;51.666;7.630;2024-03-07T00:53:32;101938.09;;;6.22;60.71
7524;BME280;3803;51.666;7.630;2024-03-07T00:53:59;101936.38;;;6.23;60.92
7524;BME280;3803;51.666;7.630;2024-03-07T00:54:20;101934.50;;;6.20;61.14
7524;BME280;3803;51.666;7.630;2024-03-07T00:54:55;101949.75;;;6.29;60.69
7524;BME280;3803;51.666;7.630;2024-03-07T00:55:21;101946.25;;;6.28;60.85
7524;BME280;3803;51.666;7.630;2024-03-07T00:55:50;101929.22;;;6.19;60.59
7524;BME280;3803;51.666;7.630;2024-03-07T00:56:26;101948.66;;;6.25;60.71
7524;BME280;3803;51.666;7.630;2024-03-07T00:56:52;101938.19;;;6.24;60.54
7524;BME280;3803;51.666;7.630;2024-03-07T00:57:13;101922.03;;;6.14;60.46
7524;BME280;3803;51.666;7.630;2024-03-07T00:57:40;101932.69;;;6.19;60.56
7524;BME280;3803;51.666;7.630;2024-03-07T00:58:08;101937.09;;;6.20;60.45
7524;BME280;3803;51.666;7.630;2024-03-07T00:58:31;101934.31;;;6.17;60.58
7524;BME280;3803;51.666;7.630;2024-03-07T00:58:52;101924.53;;;6.13;60.19
7524;BME280;3803;51.666;7.630;2024-03-07T00:59:16;101933.41;;;6.16;60.62
7524;BME280;3803;51.666;7.630;2024-03-07T00:59:39;101931.59;;;6.15;60.54
7524;BME280;3803;51.666;7.630;2024-03-07T01:00:03;101932.91;;;6.22;60.62
7524;BME280;3803;51.666;7.630;2024-03-07T01:00:26;101946.69;;;6.21;60.44
7524;BME280;3803;51.666;7.630;2024-03-07T01:00:48;101933.31;;;6.15;60.44
7524;BME280;3803;51.666;7.630;2024-03-07T01:01:12;101926.25;;;6.12;60.49
7524;BME280;3803;51.666;7.630;2024-03-07T01:01:36;101924.63;;;6.14;60.43
7524;BME280;3803;51.666;7.630;2024-03-07T01:01:58;101922.94;;;6.15;60.47
7524;BME280;3803;51.666;7.630;2024-03-07T01:02:27;101938.00;;;6.21;60.51
7524;BME280;3803;51.666;7.630;2024-03-07T01:02:50;101945.28;;;6.26;60.44
7524;BME280;3803;51.666;7.630;2024-03-07T01:03:13;101926.41;;;6.15;60.63
7524;BME280;3803;51.666;7.630;2024-03-07T01:03:37;101928.44;;;6.20;60.23
7524;BME280;3803;51.666;7.630;2024-03-07T01:03:58;101932.69;;;6.19;60.80
7524;BME280;3803;51.666;7.630;2024-03-07T01:04:19;101920.34;;;6.15;60.37
7524;BME280;3803;51.666;7.630;2024-03-07T01:04:42;101929.13;;;6.17;60.19
7524;BME280;3803;51.666;7.630;2024-03-07T01:06:37;101932.69;;;6.19;60.46
7524;BME280;3803;51.666;7.630;2024-03-07T01:06:58;101940.69;;;6.22;60.46
7524;BME280;3803;51.666;7.630;2024-03-07T01:07:19;101930.91;;;6.18;60.71
7524;BME280;3803;51.666;7.630;2024-03-07T01:07:40;101940.88;;;6.25;60.29
7524;BME280;3803;51.666;7.630;2024-03-07T01:08:01;101938.28;;;6.25;60.59
7524;BME280;3803;51.666;7.630;2024-03-07T01:08:22;101941.00;;;6.27;60.42
7524;BME280;3803;51.666;7.630;2024-03-07T01:08:43;101937.31;;;6.23;60.51
7524;BME280;3803;51.666;7.630;2024-03-07T01:09:04;101945.50;;;6.29;60.37
7524;BME280;3803;51.666;7.630;2024-03-07T01:11:19;101939.97;;;6.25;60.48
7524;BME280;3803;51.666;7.630;2024-03-07T01:11:42;101931.72;;;6.17;59.95
7524;BME280;3803;51.666;7.630;2024-03-07T01:12:03;101930.72;;;6.15;59.96
7524;BME280;3803;51.666;7.630;2024-03-07T01:12:28;101939.69;;;6.20;60.36
7524;BME280;3803;51.666;7.630;2024-03-07T01:12:51;101946.69;;;6.21;60.01
7524;BME280;3803;51.666;7.630;2024-03-07T01:13:14;101946.88;;;6.24;60.23
7524;BME280;3803;51.666;7.630;2024-03-07T01:13:45;101938.09;;;6.22;60.57
7524;BME280;3803;51.666;7.630;2024-03-07T01:14:11;101928.94;;;6.14;60.45
7524;BME280;3803;51.666;7.630;2024-03-07T01:14:37;101948.56;;;6.24;60.77
7524;BME280;3803;51.666;7.630;2024-03-07T01:15:03;101937.88;;;6.19;60.12
7524;BME280;3803;51.666;7.630;2024-03-07T01:15:34;101923.53;;;6.11;60.21
7524;BME280;3803;51.666;7.630;2024-03-07T01:16:00;101954.53;;;6.23;59.99
7524;BME280;3803;51.666;7.630;2024-03-07T01:16:22;101917.38;;;6.09;60.21
7524;BME280;3803;51.666;7.630;2024-03-07T01:16:43;101939.50;;;6.17;60.18
7524;BME280;3803;51.666;7.630;2024-03-07T01:17:04;101945.97;;;6.24;60.66
7524;BME280;3803;51.666;7.630;2024-03-07T01:17:27;101928.72;;;6.11;60.10
7524;BME280;3803;51.666;7.630;2024-03-07T01:17:48;101947.69;;;6.23;60.04
7524;BME280;3803;51.666;7.630;2024-03-07T01:18:09;101935.09;;;6.16;59.99
7524;BME280;3803;51.666;7.630;2024-03-07T01:18:29;101934.88;;;6.13;60.41
7524;BME280;3803;51.666;7.630;2024-03-07T01:18:53;101921.63;;;6.08;60.18
7524;BME280;3803;51.666;7.630;2024-03-07T01:19:14;101950.97;;;6.21;60.14
7524;BME280;3803;51.666;7.630;2024-03-07T01:19:35;101942.09;;;6.17;60.00
7524;BME280;3803;51.666;7.630;2024-03-07T01:19:56;101919.97;;;6.09;60.13
7524;BME280;3803;51.666;7.630;2024-03-07T01:20:28;101926.25;;;6.12;60.04
7524;BME280;3803;51.666;7.630;2024-03-07T01:20:59;101937.88;;;6.19;60.02
7524;BME280;3803;51.666;7.630;2024-03-07T01:21:21;101924.44;;;6.11;60.24
7524;BME280;3803;51.666;7.630;2024-03-07T01:21:51;101940.28;;;6.16;60.25
7524;BME280;3803;51.666;7.630;2024-03-07T01:22:25;101928.03;;;6.13;59.92
7524;BME280;3803;51.666;7.630;2024-03-07T01:22:49;101937.59;;;6.14;59.87
7524;BME280;3803;51.666;7.630;2024-03-07T01:23:36;101914.59;;;6.06;59.95
7524;BME280;3803;51.666;7.630;2024-03-07T01:24:01;101942.19;;;6.19;60.06
7524;BME280;3803;51.666;7.630;2024-03-07T01:24:42;101935.81;;;6.13;60.22
7524;BME280;3803;51.666;7.630;2024-03-07T01:25:04;101931.53;;;6.14;60.41
7524;BME280;3803;51.666;7.630;2024-03-07T01:25:31;101935.91;;;6.15;60.16
7524;BME280;3803;51.666;7.630;2024-03-07T01:26:00;101932.00;;;6.08;60.10
7524;BME280;3803;51.666;7.630;2024-03-07T01:26:21;101926.75;;;6.07;59.99
7524;BME280;3803;51.666;7.630;2024-03-07T01:26:51;101919.78;;;6.06;59.96
7524;BME280;3803;51.666;7.630;2024-03-07T01:27:16;101948.19;;;6.18;60.13
7524;BME280;3803;51.666;7.630;2024-03-07T01:27:40;101922.25;;;6.04;59.72
7524;BME280;3803;51.666;7.630;2024-03-07T01:28:07;101917.88;;;6.03;59.91
7524;BME280;3803;51.666;7.630;2024-03-07T01:28:40;101926.53;;;6.03;59.86
7524;BME280;3803;51.666;7.630;2024-03-07T01:29:02;101919.53;;;6.02;60.06
7524;BME280;3803;51.666;7.630;2024-03-07T01:29:22;101932.81;;;6.07;59.97
7524;BME280;3803;51.666;7.630;2024-03-07T01:29:43;101922.25;;;6.04;60.30
7524;BME280;3803;51.666;7.630;2024-03-07T01:30:05;101924.72;;;6.02;60.37
7524;BME280;3803;51.666;7.630;2024-03-07T01:30:28;101933.03;;;6.10;60.21
7524;BME280;3803;51.666;7.630;2024-03-07T01:30:52;101934.50;;;6.07;60.05
7524;BME280;3803;51.666;7.630;2024-03-07T01:31:22;101933.72;;;6.08;60.00
7524;BME280;3803;51.666;7.630;2024-03-07T01:31:53;101923.13;;;6.05;60.02
7524;BME280;3803;51.666;7.630;2024-03-07T01:32:17;101928.72;;;6.11;60.50
7524;BME280;3803;51.666;7.630;2024-03-07T01:32:41;101932.81;;;6.07;60.27
7524;BME280;3803;51.666;7.630;2024-03-07T01:33:01;101927.31;;;6.02;60.09
7524;BME280;3803;51.666;7.630;2024-03-07T01:33:23;101922.25;;;6.04;60.34
7524;BME280;3803;51.666;7.630;2024-03-07T01:33:44;101920.34;;;6.01;59.84
7524;BME280;3803;51.666;7.630;2024-03-07T01:34:04;101939.88;;;6.10;60.13
7524;BME280;3803;51.666;7.630;2024-03-07T01:34:25;101924.03;;;6.05;60.25
7524;BME280;3803;51.666;7.630;2024-03-07T01:34:46;101939.00;;;6.09;60.19
7524;BME280;3803;51.666;7.630;2024-03-07T01:35:07;101934.81;;;6.11;60.07
7524;BME280;3803;51.666;7.630;2024-03-07T01:35:28;101926.81;;;6.08;60.30
7524;BME280;3803;51.666;7.630;2024-03-07T01:35:49;101921.34;;;6.03;60.64
7524;BME280;3803;51.666;7.630;2024-03-07T01:36:16;101916.16;;;6.03;60.01
7524;BME280;3803;51.666;7.630;2024-03-07T01:36:39;101921.56;;;6.07;59.91
7524;BME280;3803;51.666;7.630;2024-03-07T01:37:03;101932.09;;;6.10;59.95
7524;BME280;3803;51.666;7.630;2024-03-07T01:37:31;101930.22;;;6.07;60.18
7524;BME280;3803;51.666;7.630;2024-03-07T01:37:54;101922.13;;;6.02;60.09
7524;BME280;3803;51.666;7.630;2024-03-07T01:38:25;101919.44;;;6.01;60.03
7524;BME280;3803;51.666;7.630;2024-03-07T01:38:57;101928.53;;;6.08;60.30
7524;BME280;3803;51.666;7.630;2024-03-07T01:39:18;101930.91;;;6.05;60.29
7524;BME280;3803;51.666;7.630;2024-03-07T01:39:44;101921.34;;;6.03;60.38
7524;BME280;3803;51.666;7.630;2024-03-07T01:40:08;101932.22;;;6.11;60.21
7524;BME280;3803;51.666;7.630;2024-03-07T01:40:29;101931.53;;;6.14;59.99
7524;BME280;3803;51.666;7.630;2024-03-07T01:40:50;101925.25;;;6.10;59.88
7524;BME280;3803;51.666;7.630;2024-03-07T01:41:11;101934.13;;;6.14;59.88
7524;BME280;3803;51.666;7.630;2024-03-07T01:41:38;101927.84;;;6.10;60.26
7524;BME280;3803;51.666;7.630;2024-03-07T01:42:02;101925.66;;;6.03;59.66
7524;BME280;3803;51.666;7.630;2024-03-07T01:42:27;101934.59;;;6.08;59.72
7524;BME280;3803;51.666;7.630;2024-03-07T01:42:53;101924.84;;;6.04;60.07
7524;BME280;3803;51.666;7.630;2024-03-07T01:43:22;101922.03;;;6.01;60.06
7524;BME280;3803;51.666;7.630;2024-03-07T01:43:46;101925.66;;;6.03;59.79
7524;BME280;3803;51.666;7.630;2024-03-07T01:44:13;101927.13;;;5.99;60.05
7524;BME280;3803;51.666;7.630;2024-03-07T01:44:33;101920.97;;;5.97;59.81
7524;BME280;3803;51.666;7.630;2024-03-07T01:44:54;101917.56;;;5.98;60.09
7524;BME280;3803;51.666;7.630;2024-03-07T01:45:15;101915.56;;;5.94;59.98
7524;BME280;3803;51.666;7.630;2024-03-07T01:45:37;101938.50;;;6.01;59.97
7524;BME280;3803;51.666;7.630;2024-03-07T01:45:58;101920.97;;;5.97;59.85
7524;BME280;3803;51.666;7.630;2024-03-07T01:46:19;101928.53;;;5.94;60.02
7524;BME280;3803;51.666;7.630;2024-03-07T01:46:40;101920.75;;;5.94;60.15
7524;BME280;3803;51.666;7.630;2024-03-07T01:47:04;101924.13;;;5.93;59.96
7524;BME280;3803;51.666;7.630;2024-03-07T01:47:28;101923.03;;;5.89;59.82
7524;BME280;3803;51.666;7.630;2024-03-07T01:47:52;101918.84;;;5.92;59.88
7524;BME280;3803;51.666;7.630;2024-03-07T01:48:25;101902.81;;;5.84;60.03
7524;BME280;3803;51.666;7.630;2024-03-07T01:48:55;101914.34;;;5.89;59.73
7524;BME280;3803;51.666;7.630;2024-03-07T01:49:19;101924.31;;;5.96;60.30
7524;BME280;3803;51.666;7.630;2024-03-07T01:49:54;101922.47;;;5.94;60.03
7524;BME280;3803;51.666;7.630;2024-03-07T01:50:25;101914.34;;;5.89;59.89
7524;BME280;3803;51.666;7.630;2024-03-07T01:50:53;101914.56;;;5.92;60.09
7524;BME280;3803;51.666;7.630;2024-03-07T01:51:41;101912.38;;;5.85;59.87
7524;BME280;3803;51.666;7.630;2024-03-07T01:52:15;101930.41;;;5.97;59.65
7524;BME280;3803;51.666;7.630;2024-03-07T01:52:41;101924.03;;;5.92;60.07
7524;BME280;3803;51.666;7.630;2024-03-07T01:53:02;101914.06;;;5.84;59.94
7524;BME280;3803;51.666;7.630;2024-03-07T01:53:32;101908.00;;;5.84;59.69
7524;BME280;3803;51.666;7.630;2024-03-07T01:54:07;101904.19;;;5.79;59.94
7524;BME280;3803;51.666;7.630;2024-03-07T01:54:41;101920.03;;;5.83;59.94
7524;BME280;3803;51.666;7.630;2024-03-07T01:57:34;101934.69;;;5.96;60.26
7524;BME280;3803;51.666;7.630;2024-03-07T01:58:18;101909.59;;;5.82;59.98
7524;BME280;3803;51.666;7.630;2024-03-07T02:00:12;101920.34;;;5.88;59.93
7524;BME280;3803;51.666;7.630;2024-03-07T02:01:05;101912.94;;;5.81;60.11
7524;BME280;3803;51.666;7.630;2024-03-07T02:01:44;101910.34;;;5.81;60.11
7524;BME280;3803;51.666;7.630;2024-03-07T02:02:42;101916.56;;;5.83;60.15
7524;BME280;3803;51.666;7.630;2024-03-07T02:03:40;101914.78;;;5.82;60.26
7524;BME280;3803;51.666;7.630;2024-03-07T02:05:34;101917.84;;;5.89;59.92
7524;BME280;3803;51.666;7.630;2024-03-07T02:06:16;101929.31;;;5.93;60.11
7524;BME280;3803;51.666;7.630;2024-03-07T02:07:42;101918.75;;;5.90;59.69
7524;BME280;3803;51.666;7.630;2024-03-07T02:08:06;101907.88;;;5.82;59.90
7524;BME280;3803;51.666;7.630;2024-03-07T02:08:54;101910.47;;;5.82;59.94
7524;BME280;3803;51.666;7.630;2024-03-07T02:09:58;101913.75;;;5.80;59.99
7524;BME280;3803;51.666;7.630;2024-03-07T02:10:35;101923.84;;;5.88;60.08
7524;BME280;3803;51.666;7.630;2024-03-07T02:11:07;101917.56;;;5.85;60.18
7524;BME280;3803;51.666;7.630;2024-03-07T02:11:35;101903.38;;;5.80;60.08
7524;BME280;3803;51.666;7.630;2024-03-07T02:12:06;101913.34;;;5.87;60.02
7524;BME280;3803;51.666;7.630;2024-03-07T02:12:56;101917.97;;;5.91;60.04
7524;BME280;3803;51.666;7.630;2024-03-07T02:13:41;101912.25;;;5.83;59.69
7524;BME280;3803;51.666;7.630;2024-03-07T02:14:39;101921.75;;;5.83;59.59
7524;BME280;3803;51.666;7.630;2024-03-07T02:15:16;101898.81;;;5.75;59.87
7524;BME280;3803;51.666;7.630;2024-03-07T02:15:51;101902.22;;;5.74;59.78
7524;BME280;3803;51.666;7.630;2024-03-07T02:16:17;101903.09;;;5.75;59.96
7524;BME280;3803;51.666;7.630;2024-03-07T02:16:41;101912.06;;;5.80;59.69
7524;BME280;3803;51.666;7.630;2024-03-07T02:17:08;101904.00;;;5.75;59.86
7524;BME280;3803;51.666;7.630;2024-03-07T02:17:31;101912.94;;;5.81;60.03
7524;BME280;3803;51.666;7.630;2024-03-07T02:17:53;101903.00;;;5.73;59.69
7524;BME280;3803;51.666;7.630;2024-03-07T02:18:30;101919.97;;;5.82;59.75
7524;BME280;3803;51.666;7.630;2024-03-07T02:18:56;101894.81;;;5.67;59.63
7524;BME280;3803;51.666;7.630;2024-03-07T02:19:35;101911.84;;;5.77;59.99
7524;BME280;3803;51.666;7.630;2024-03-07T02:19:59;101911.78;;;5.75;59.93
7524;BME280;3803;51.666;7.630;2024-03-07T02:20:24;101898.97;;;5.65;60.06
7524;BME280;3803;51.666;7.630;2024-03-07T02:21:25;101908.34;;;5.63;59.88
7524;BME280;3803;51.666;7.630;2024-03-07T02:21:52;101898.69;;;5.60;59.97
7524;BME280;3803;51.666;7.630;2024-03-07T02:22:21;101919.31;;;5.72;59.94
7524;BME280;3803;51.666;7.630;2024-03-07T02:23:01;101896.81;;;5.58;59.81
7524;BME280;3803;51.666;7.630;2024-03-07T02:24:01;101913.34;;;5.60;59.97
7524;BME280;3803;51.666;7.630;2024-03-07T02:24:48;101897.19;;;5.51;59.77
7524;BME280;3803;51.666;7.630;2024-03-07T02:27:44;101912.13;;;5.55;59.87
7524;BME280;3803;51.666;7.630;2024-03-07T02:28:39;101920.31;;;5.61;59.94
7524;BME280;3803;51.666;7.630;2024-03-07T02:29:23;101903.94;;;5.48;59.58
7524;BME280;3803;51.666;7.630;2024-03-07T02:30:12;101908.66;;;5.54;59.79
7524;BME280;3803;51.666;7.630;2024-03-07T02:31:14;101894.97;;;5.43;59.63
7524;BME280;3803;51.666;7.630;2024-03-07T02:32:03;101923.47;;;5.57;59.68
7524;BME280;3803;51.666;7.630;2024-03-07T02:32:24;101900.16;;;5.43;60.03
7524;BME280;3803;51.666;7.630;2024-03-07T02:32:49;101913.59;;;5.51;59.77
7524;BME280;3803;51.666;7.630;2024-03-07T02:33:17;101902.75;;;5.43;59.37
7524;BME280;3803;51.666;7.630;2024-03-07T02:34:25;101901.03;;;5.44;59.70
7524;BME280;3803;51.666;7.630;2024-03-07T02:34:55;101906.91;;;5.41;59.95
7524;BME280;3803;51.666;7.630;2024-03-07T02:38:22;101896.09;;;5.47;59.65
7524;BME280;3803;51.666;7.630;2024-03-07T02:39:09;101894.75;;;5.40;59.58